sensor_id;sensor_type;location;lat;lon;timestamp;pressure;altitude;pressure_sealevel;temperature;humidity
50105;BME280;47690;39.202;-77.198;2022-12-18T00:02:31;99601.84;;;31.87;8.30
50105;BME280;47690;39.202;-77.198;2022-12-18T00:05:01;99610.50;;;31.89;8.95
50105;BME280;47690;39.202;-77.198;2022-12-18T00:07:32;99608.56;;;31.83;8.55
50105;BME280;47690;39.202;-77.198;2022-12-18T00:10:04;99619.03;;;31.76;8.84
50105;BME280;47690;39.202;-77.198;2022-12-18T00:12:36;99600.94;;;31.71;8.57
50105;BME280;47690;39.202;-77.198;2022-12-18T00:15:07;99607.91;;;31.72;8.68
50105;BME280;47690;39.202;-77.198;2022-12-18T00:17:39;99612.44;;;31.72;8.59
50105;BME280;47690;39.202;-77.198;2022-12-18T00:20:11;99614.06;;;31.73;8.69
50105;BME280;47690;39.202;-77.198;2022-12-18T00:22:43;99602.13;;;31.69;8.51
50105;BME280;47690;39.202;-77.198;2022-12-18T00:25:13;99592.31;;;31.69;8.50
50105;BME280;47690;39.202;-77.198;2022-12-18T00:27:48;99585.50;;;31.67;8.83
50105;BME280;47690;39.202;-77.198;2022-12-18T00:30:30;99574.69;;;31.68;8.67
50105;BME280;47690;39.202;-77.198;2022-12-18T00:33:01;99569.63;;;31.73;8.48
50105;BME280;47690;39.202;-77.198;2022-12-18T00:35:35;99572.56;;;31.64;8.69
50105;BME280;47690;39.202;-77.198;2022-12-18T00:38:05;99580.06;;;31.60;8.54
50105;BME280;47690;39.202;-77.198;2022-12-18T00:40:39;99589.50;;;31.62;8.58
50105;BME280;47690;39.202;-77.198;2022-12-18T00:43:12;99580.41;;;31.57;8.67
50105;BME280;47690;39.202;-77.198;2022-12-18T00:45:43;99591.22;;;31.55;9.09
50105;BME280;47690;39.202;-77.198;2022-12-18T00:48:14;99589.56;;;31.54;9.08
50105;BME280;47690;39.202;-77.198;2022-12-18T00:50:52;99594.56;;;31.57;8.77
50105;BME280;47690;39.202;-77.198;2022-12-18T00:53:25;99593.72;;;31.57;8.73
50105;BME280;47690;39.202;-77.198;2022-12-18T00:55:59;99600.53;;;31.59;9.08
50105;BME280;47690;39.202;-77.198;2022-12-18T00:58:29;99612.22;;;31.50;8.78
50105;BME280;47690;39.202;-77.198;2022-12-18T01:01:05;99602.13;;;31.45;9.13
50105;BME280;47690;39.202;-77.198;2022-12-18T01:03:35;99616.41;;;31.44;8.73
50105;BME280;47690;39.202;-77.198;2022-12-18T01:06:08;99616.41;;;31.44;8.66
50105;BME280;47690;39.202;-77.198;2022-12-18T01:08:40;99614.59;;;31.45;9.02
50105;BME280;47690;39.202;-77.198;2022-12-18T01:11:20;99620.91;;;31.44;8.93
50105;BME280;47690;39.202;-77.198;2022-12-18T01:13:51;99621.09;;;31.42;8.86
50105;BME280;47690;39.202;-77.198;2022-12-18T01:16:28;99634.28;;;31.36;9.07
50105;BME280;47690;39.202;-77.198;2022-12-18T01:19:00;99635.09;;;31.36;8.89
50105;BME280;47690;39.202;-77.198;2022-12-18T01:21:37;99630.78;;;31.35;9.26
50105;BME280;47690;39.202;-77.198;2022-12-18T01:24:11;99636.72;;;31.37;9.18
50105;BME280;47690;39.202;-77.198;2022-12-18T01:26:45;99636.88;;;31.44;8.80
50105;BME280;47690;39.202;-77.198;2022-12-18T01:29:16;99646.03;;;31.41;9.20
50105;BME280;47690;39.202;-77.198;2022-12-18T01:31:48;99647.22;;;31.39;8.88
50105;BME280;47690;39.202;-77.198;2022-12-18T01:34:19;99647.09;;;31.32;8.82
50105;BME280;47690;39.202;-77.198;2022-12-18T01:36:52;99648.44;;;31.28;8.82
50105;BME280;47690;39.202;-77.198;2022-12-18T01:39:23;99647.63;;;31.27;9.17
50105;BME280;47690;39.202;-77.198;2022-12-18T01:41:55;99638.13;;;31.25;9.10
50105;BME280;47690;39.202;-77.198;2022-12-18T01:50:17;99646.09;;;31.33;9.29
50105;BME280;47690;39.202;-77.198;2022-12-18T01:53:00;99647.91;;;31.32;9.32
50105;BME280;47690;39.202;-77.198;2022-12-18T01:55:43;99640.28;;;31.29;9.74
50105;BME280;47690;39.202;-77.198;2022-12-18T01:58:15;99645.44;;;31.23;9.32
50105;BME280;47690;39.202;-77.198;2022-12-18T02:00:45;99640.81;;;31.16;9.21
50105;BME280;47690;39.202;-77.198;2022-12-18T02:03:15;99641.16;;;31.13;9.26
50105;BME280;47690;39.202;-77.198;2022-12-18T02:09:09;99635.59;;;31.31;9.40
50105;BME280;47690;39.202;-77.198;2022-12-18T02:17:06;99634.53;;;31.09;9.15
50105;BME280;47690;39.202;-77.198;2022-12-18T02:22:38;99635.03;;;31.13;9.24
50105;BME280;47690;39.202;-77.198;2022-12-18T02:28:03;99644.00;;;31.03;9.19
50105;BME280;47690;39.202;-77.198;2022-12-18T02:30:37;99644.72;;;30.97;9.46
50105;BME280;47690;39.202;-77.198;2022-12-18T02:33:11;99642.56;;;30.92;9.26
50105;BME280;47690;39.202;-77.198;2022-12-18T02:35:44;99636.25;;;30.93;9.15
50105;BME280;47690;39.202;-77.198;2022-12-18T02:38:16;99641.09;;;30.90;9.35
50105;BME280;47690;39.202;-77.198;2022-12-18T02:40:53;99656.38;;;30.88;9.46
50105;BME280;47690;39.202;-77.198;2022-12-18T02:43:31;99661.53;;;30.89;9.38
50105;BME280;47690;39.202;-77.198;2022-12-18T02:46:27;99667.81;;;30.97;9.56
50105;BME280;47690;39.202;-77.198;2022-12-18T02:54:44;99678.63;;;31.75;9.11
50105;BME280;47690;39.202;-77.198;2022-12-18T03:00:18;99670.16;;;30.91;9.47
50105;BME280;47690;39.202;-77.198;2022-12-18T03:03:13;99670.66;;;30.87;9.52
50105;BME280;47690;39.202;-77.198;2022-12-18T03:08:54;99678.09;;;31.00;9.46
50105;BME280;47690;39.202;-77.198;2022-12-18T03:11:34;99676.63;;;30.89;9.43
50105;BME280;47690;39.202;-77.198;2022-12-18T03:14:31;99662.50;;;30.97;9.53
50105;BME280;47690;39.202;-77.198;2022-12-18T03:17:09;99672.00;;;30.83;9.35
50105;BME280;47690;39.202;-77.198;2022-12-18T03:19:44;99667.19;;;30.78;9.57
50105;BME280;47690;39.202;-77.198;2022-12-18T03:22:17;99666.53;;;30.76;9.72
50105;BME280;47690;39.202;-77.198;2022-12-18T03:25:07;99663.88;;;30.76;9.75
50105;BME280;47690;39.202;-77.198;2022-12-18T03:27:47;99653.59;;;30.73;9.64
50105;BME280;47690;39.202;-77.198;2022-12-18T03:30:28;99656.75;;;30.76;9.73
50105;BME280;47690;39.202;-77.198;2022-12-18T03:33:10;99660.41;;;30.75;9.45
50105;BME280;47690;39.202;-77.198;2022-12-18T03:35:47;99663.88;;;30.76;9.66
50105;BME280;47690;39.202;-77.198;2022-12-18T03:38:17;99661.38;;;30.74;9.73
50105;BME280;47690;39.202;-77.198;2022-12-18T03:41:16;99654.22;;;30.83;9.76
50105;BME280;47690;39.202;-77.198;2022-12-18T03:47:17;99678.97;;;30.92;9.63
50105;BME280;47690;39.202;-77.198;2022-12-18T03:50:18;99685.41;;;30.98;9.89
50105;BME280;47690;39.202;-77.198;2022-12-18T03:55:49;99698.56;;;30.91;9.28
50105;BME280;47690;39.202;-77.198;2022-12-18T03:58:29;99700.59;;;30.72;9.70
50105;BME280;47690;39.202;-77.198;2022-12-18T04:01:19;99711.06;;;30.74;9.79
50105;BME280;47690;39.202;-77.198;2022-12-18T04:03:52;99712.22;;;30.63;10.00
50105;BME280;47690;39.202;-77.198;2022-12-18T04:06:29;99718.53;;;30.70;9.87
50105;BME280;47690;39.202;-77.198;2022-12-18T04:09:01;99707.56;;;30.65;9.80
50105;BME280;47690;39.202;-77.198;2022-12-18T04:11:37;99705.56;;;30.59;9.79
50105;BME280;47690;39.202;-77.198;2022-12-18T04:14:08;99711.06;;;30.49;10.03
50105;BME280;47690;39.202;-77.198;2022-12-18T04:16:51;99713.72;;;30.49;9.70
50105;BME280;47690;39.202;-77.198;2022-12-18T04:19:28;99717.84;;;30.51;9.84
50105;BME280;47690;39.202;-77.198;2022-12-18T04:22:04;99727.81;;;30.58;9.84
50105;BME280;47690;39.202;-77.198;2022-12-18T04:24:43;99724.16;;;30.59;9.94
50105;BME280;47690;39.202;-77.198;2022-12-18T04:27:29;99723.00;;;30.61;9.63
50105;BME280;47690;39.202;-77.198;2022-12-18T04:30:07;99721.84;;;30.56;10.01
50105;BME280;47690;39.202;-77.198;2022-12-18T04:32:40;99716.03;;;30.52;10.09
50105;BME280;47690;39.202;-77.198;2022-12-18T04:35:20;99713.03;;;30.55;9.80
50105;BME280;47690;39.202;-77.198;2022-12-18T04:37:51;99712.03;;;30.48;9.75
50105;BME280;47690;39.202;-77.198;2022-12-18T04:40:21;99702.75;;;30.44;9.74
50105;BME280;47690;39.202;-77.198;2022-12-18T04:42:51;99707.41;;;30.42;9.82
50105;BME280;47690;39.202;-77.198;2022-12-18T04:45:24;99701.25;;;30.41;9.96
50105;BME280;47690;39.202;-77.198;2022-12-18T04:47:57;99696.47;;;30.36;9.93
50105;BME280;47690;39.202;-77.198;2022-12-18T04:50:30;99695.78;;;30.43;9.64
50105;BME280;47690;39.202;-77.198;2022-12-18T04:53:01;99696.09;;;30.39;9.84
50105;BME280;47690;39.202;-77.198;2022-12-18T04:55:32;99693.16;;;30.34;9.78
50105;BME280;47690;39.202;-77.198;2022-12-18T04:58:05;99699.44;;;30.42;9.60
50105;BME280;47690;39.202;-77.198;2022-12-18T05:00:37;99693.31;;;30.33;9.73
50105;BME280;47690;39.202;-77.198;2022-12-18T05:03:09;99685.34;;;30.24;9.92
50105;BME280;47690;39.202;-77.198;2022-12-18T05:05:39;99686.34;;;30.23;9.94
50105;BME280;47690;39.202;-77.198;2022-12-18T05:08:09;99688.81;;;30.25;10.08
50105;BME280;47690;39.202;-77.198;2022-12-18T05:10:40;99694.47;;;30.22;9.89
50105;BME280;47690;39.202;-77.198;2022-12-18T05:13:13;99684.50;;;30.24;10.21
50105;BME280;47690;39.202;-77.198;2022-12-18T05:17:29;99680.16;;;30.64;9.76
50105;BME280;47690;39.202;-77.198;2022-12-18T05:20:01;99680.84;;;30.58;9.81
50105;BME280;47690;39.202;-77.198;2022-12-18T05:22:31;99684.16;;;30.44;9.89
50105;BME280;47690;39.202;-77.198;2022-12-18T05:25:01;99679.50;;;30.37;9.97
50105;BME280;47690;39.202;-77.198;2022-12-18T05:27:33;99687.63;;;30.36;9.80
50105;BME280;47690;39.202;-77.198;2022-12-18T05:30:03;99696.13;;;30.31;10.46
50105;BME280;47690;39.202;-77.198;2022-12-18T05:32:35;99697.28;;;30.29;10.05
50105;BME280;47690;39.202;-77.198;2022-12-18T05:35:09;99694.97;;;30.25;10.37
50105;BME280;47690;39.202;-77.198;2022-12-18T05:37:42;99696.28;;;30.30;9.95
50105;BME280;47690;39.202;-77.198;2022-12-18T05:40:16;99698.78;;;30.23;10.17
50105;BME280;47690;39.202;-77.198;2022-12-18T05:42:50;99694.63;;;30.20;10.14
50105;BME280;47690;39.202;-77.198;2022-12-18T05:45:21;99695.47;;;30.21;10.17
50105;BME280;47690;39.202;-77.198;2022-12-18T05:47:51;99698.28;;;30.19;10.20
50105;BME280;47690;39.202;-77.198;2022-12-18T05:50:24;99705.59;;;30.17;10.38
50105;BME280;47690;39.202;-77.198;2022-12-18T05:53:02;99709.41;;;30.23;10.15
50105;BME280;47690;39.202;-77.198;2022-12-18T05:55:35;99705.91;;;30.22;10.23
50105;BME280;47690;39.202;-77.198;2022-12-18T05:58:07;99706.59;;;30.16;10.24
50105;BME280;47690;39.202;-77.198;2022-12-18T06:00:39;99709.25;;;30.16;9.93
50105;BME280;47690;39.202;-77.198;2022-12-18T06:03:12;99702.09;;;30.08;10.10
50105;BME280;47690;39.202;-77.198;2022-12-18T06:05:44;99713.34;;;30.10;10.14
50105;BME280;47690;39.202;-77.198;2022-12-18T06:08:16;99729.47;;;30.09;10.36
50105;BME280;47690;39.202;-77.198;2022-12-18T06:10:50;99718.66;;;30.10;10.26
50105;BME280;47690;39.202;-77.198;2022-12-18T06:13:22;99715.72;;;30.22;10.10
50105;BME280;47690;39.202;-77.198;2022-12-18T06:15:55;99729.34;;;30.27;10.15
50105;BME280;47690;39.202;-77.198;2022-12-18T06:18:29;99717.03;;;30.18;10.32
50105;BME280;47690;39.202;-77.198;2022-12-18T06:21:02;99715.38;;;30.17;10.29
50105;BME280;47690;39.202;-77.198;2022-12-18T06:23:33;99717.00;;;30.09;10.14
50105;BME280;47690;39.202;-77.198;2022-12-18T06:26:10;99719.97;;;30.06;10.67
50105;BME280;47690;39.202;-77.198;2022-12-18T06:28:41;99721.66;;;30.07;10.38
50105;BME280;47690;39.202;-77.198;2022-12-18T06:31:12;99719.97;;;30.06;10.53
50105;BME280;47690;39.202;-77.198;2022-12-18T06:33:44;99730.59;;;30.06;10.30
50105;BME280;47690;39.202;-77.198;2022-12-18T06:36:16;99732.97;;;30.18;10.08
50105;BME280;47690;39.202;-77.198;2022-12-18T06:38:47;99734.59;;;30.19;10.17
50105;BME280;47690;39.202;-77.198;2022-12-18T06:41:20;99741.75;;;30.18;10.25
50105;BME280;47690;39.202;-77.198;2022-12-18T06:43:52;99736.13;;;30.21;10.02
50105;BME280;47690;39.202;-77.198;2022-12-18T06:46:29;99737.44;;;30.17;10.29
50105;BME280;47690;39.202;-77.198;2022-12-18T06:49:01;99743.94;;;30.23;10.27
50105;BME280;47690;39.202;-77.198;2022-12-18T06:51:31;99743.25;;;30.12;10.38
50105;BME280;47690;39.202;-77.198;2022-12-18T06:54:01;99743.56;;;30.09;10.23
50105;BME280;47690;39.202;-77.198;2022-12-18T06:56:33;99741.38;;;30.05;10.16
50105;BME280;47690;39.202;-77.198;2022-12-18T06:59:03;99743.88;;;29.98;10.45
50105;BME280;47690;39.202;-77.198;2022-12-18T07:01:33;99740.72;;;29.94;10.32
50105;BME280;47690;39.202;-77.198;2022-12-18T07:04:05;99744.81;;;29.89;10.62
50105;BME280;47690;39.202;-77.198;2022-12-18T07:06:36;99739.84;;;29.94;10.49
50105;BME280;47690;39.202;-77.198;2022-12-18T07:09:07;99739.19;;;29.92;10.48
50105;BME280;47690;39.202;-77.198;2022-12-18T07:11:37;99733.72;;;29.93;10.41
50105;BME280;47690;39.202;-77.198;2022-12-18T07:14:09;99737.22;;;29.94;10.10
50105;BME280;47690;39.202;-77.198;2022-12-18T07:16:39;99730.91;;;29.95;10.13
50105;BME280;47690;39.202;-77.198;2022-12-18T07:19:11;99733.56;;;29.95;10.76
50105;BME280;47690;39.202;-77.198;2022-12-18T07:21:41;99737.88;;;29.96;10.41
50105;BME280;47690;39.202;-77.198;2022-12-18T07:24:11;99740.03;;;30.01;10.47
50105;BME280;47690;39.202;-77.198;2022-12-18T07:26:41;99739.56;;;30.05;10.45
50105;BME280;47690;39.202;-77.198;2022-12-18T07:29:11;99734.41;;;30.04;10.23
50105;BME280;47690;39.202;-77.198;2022-12-18T07:31:41;99744.56;;;30.08;10.39
50105;BME280;47690;39.202;-77.198;2022-12-18T07:34:13;99739.72;;;30.04;10.19
50105;BME280;47690;39.202;-77.198;2022-12-18T07:36:45;99746.53;;;29.98;10.25
50105;BME280;47690;39.202;-77.198;2022-12-18T07:39:15;99744.31;;;29.93;10.29
50105;BME280;47690;39.202;-77.198;2022-12-18T07:41:45;99737.53;;;29.91;10.61
50105;BME280;47690;39.202;-77.198;2022-12-18T07:44:34;99740.38;;;29.97;10.34
50105;BME280;47690;39.202;-77.198;2022-12-18T07:47:05;99744.16;;;29.95;10.24
50105;BME280;47690;39.202;-77.198;2022-12-18T07:49:39;99742.84;;;29.91;10.32
50105;BME280;47690;39.202;-77.198;2022-12-18T07:52:09;99744.31;;;29.93;10.32
50105;BME280;47690;39.202;-77.198;2022-12-18T07:54:42;99739.84;;;29.94;10.37
50105;BME280;47690;39.202;-77.198;2022-12-18T07:57:13;99738.22;;;30.01;10.40
50105;BME280;47690;39.202;-77.198;2022-12-18T08:00:04;99743.72;;;30.08;10.29
50105;BME280;47690;39.202;-77.198;2022-12-18T08:02:39;99737.63;;;30.57;10.02
50105;BME280;47690;39.202;-77.198;2022-12-18T08:05:12;99734.72;;;30.01;10.27
50105;BME280;47690;39.202;-77.198;2022-12-18T08:07:42;99730.75;;;29.96;10.42
50105;BME280;47690;39.202;-77.198;2022-12-18T08:10:12;99732.38;;;29.89;10.56
50105;BME280;47690;39.202;-77.198;2022-12-18T08:12:42;99735.38;;;29.86;10.29
50105;BME280;47690;39.202;-77.198;2022-12-18T08:15:13;99731.03;;;29.85;10.63
50105;BME280;47690;39.202;-77.198;2022-12-18T08:17:45;99732.22;;;29.91;10.24
50105;BME280;47690;39.202;-77.198;2022-12-18T08:20:19;99729.59;;;29.99;10.31
50105;BME280;47690;39.202;-77.198;2022-12-18T08:22:49;99733.91;;;30.00;10.33
50105;BME280;47690;39.202;-77.198;2022-12-18T08:25:21;99728.25;;;30.03;10.20
50105;BME280;47690;39.202;-77.198;2022-12-18T08:27:52;99731.75;;;30.04;10.44
50105;BME280;47690;39.202;-77.198;2022-12-18T08:30:27;99726.34;;;30.22;10.35
50105;BME280;47690;39.202;-77.198;2022-12-18T08:32:59;99730.13;;;30.11;10.17
50105;BME280;47690;39.202;-77.198;2022-12-18T08:35:36;99734.28;;;30.14;10.36
50105;BME280;47690;39.202;-77.198;2022-12-18T08:38:12;99733.41;;;29.96;10.54
50105;BME280;47690;39.202;-77.198;2022-12-18T08:40:43;99724.06;;;29.84;10.69
50105;BME280;47690;39.202;-77.198;2022-12-18T08:43:13;99739.66;;;29.79;10.67
50105;BME280;47690;39.202;-77.198;2022-12-18T08:46:01;99728.88;;;29.80;10.20
50105;BME280;47690;39.202;-77.198;2022-12-18T08:48:32;99722.88;;;29.70;10.25
50105;BME280;47690;39.202;-77.198;2022-12-18T08:51:03;99724.91;;;29.76;10.80
50105;BME280;47690;39.202;-77.198;2022-12-18T08:53:37;99728.72;;;29.82;10.55
50105;BME280;47690;39.202;-77.198;2022-12-18T08:56:07;99724.06;;;29.76;10.29
50105;BME280;47690;39.202;-77.198;2022-12-18T08:58:38;99731.31;;;30.50;10.16
50105;BME280;47690;39.202;-77.198;2022-12-18T09:01:12;99713.66;;;29.99;10.56
50105;BME280;47690;39.202;-77.198;2022-12-18T09:03:44;99723.91;;;29.77;10.59
50105;BME280;47690;39.202;-77.198;2022-12-18T09:06:17;99716.09;;;29.76;10.84
50105;BME280;47690;39.202;-77.198;2022-12-18T09:08:57;99719.41;;;29.78;10.63
50105;BME280;47690;39.202;-77.198;2022-12-18T09:11:29;99724.19;;;29.74;10.61
50105;BME280;47690;39.202;-77.198;2022-12-18T09:14:01;99728.34;;;29.68;10.45
50105;BME280;47690;39.202;-77.198;2022-12-18T09:16:32;99742.09;;;29.64;10.89
50105;BME280;47690;39.202;-77.198;2022-12-18T09:19:05;99745.78;;;29.71;10.66
50105;BME280;47690;39.202;-77.198;2022-12-18T09:21:37;99749.06;;;29.65;10.72
50105;BME280;47690;39.202;-77.198;2022-12-18T09:24:15;99746.56;;;29.63;10.92
50105;BME280;47690;39.202;-77.198;2022-12-18T09:26:45;99749.41;;;29.62;10.73
50105;BME280;47690;39.202;-77.198;2022-12-18T09:29:16;99755.94;;;29.92;10.69
50105;BME280;47690;39.202;-77.198;2022-12-18T09:31:48;99752.09;;;30.38;10.14
50105;BME280;47690;39.202;-77.198;2022-12-18T09:34:18;99754.56;;;30.48;10.21
50105;BME280;47690;39.202;-77.198;2022-12-18T09:36:54;99756.56;;;30.54;10.06
50105;BME280;47690;39.202;-77.198;2022-12-18T09:39:29;99755.91;;;30.52;9.85
50105;BME280;47690;39.202;-77.198;2022-12-18T09:42:00;99759.41;;;30.52;10.34
50105;BME280;47690;39.202;-77.198;2022-12-18T09:44:36;99753.41;;;30.59;10.00
50105;BME280;47690;39.202;-77.198;2022-12-18T09:50:05;99754.25;;;30.51;10.20
50105;BME280;47690;39.202;-77.198;2022-12-18T09:52:49;99748.75;;;30.44;10.06
50105;BME280;47690;39.202;-77.198;2022-12-18T09:55:39;99749.44;;;30.38;10.29
50105;BME280;47690;39.202;-77.198;2022-12-18T10:01:02;99748.44;;;30.39;9.99
50105;BME280;47690;39.202;-77.198;2022-12-18T10:03:33;99754.41;;;30.24;10.22
50105;BME280;47690;39.202;-77.198;2022-12-18T10:09:09;99760.16;;;30.11;10.23
50105;BME280;47690;39.202;-77.198;2022-12-18T10:11:58;99765.50;;;30.20;10.15
50105;BME280;47690;39.202;-77.198;2022-12-18T10:20:35;99767.00;;;30.22;10.17
50105;BME280;47690;39.202;-77.198;2022-12-18T10:26:07;99776.78;;;30.22;10.41
50105;BME280;47690;39.202;-77.198;2022-12-18T10:28:41;99781.91;;;30.07;10.31
50105;BME280;47690;39.202;-77.198;2022-12-18T10:31:16;99783.72;;;30.06;10.28
50105;BME280;47690;39.202;-77.198;2022-12-18T10:33:46;99782.19;;;30.04;10.27
50105;BME280;47690;39.202;-77.198;2022-12-18T10:36:17;99787.97;;;29.91;9.98
50105;BME280;47690;39.202;-77.198;2022-12-18T10:38:48;99782.31;;;29.85;10.57
50105;BME280;47690;39.202;-77.198;2022-12-18T10:44:22;99790.38;;;30.19;9.99
50105;BME280;47690;39.202;-77.198;2022-12-18T10:47:21;99786.13;;;30.34;10.20
50105;BME280;47690;39.202;-77.198;2022-12-18T10:50:01;99792.09;;;30.28;10.35
50105;BME280;47690;39.202;-77.198;2022-12-18T10:52:32;99800.50;;;30.15;10.11
50105;BME280;47690;39.202;-77.198;2022-12-18T10:55:16;99803.34;;;30.14;9.74
50105;BME280;47690;39.202;-77.198;2022-12-18T10:57:51;99802.00;;;30.18;10.01
50105;BME280;47690;39.202;-77.198;2022-12-18T11:00:30;99815.13;;;30.19;10.08
50105;BME280;47690;39.202;-77.198;2022-12-18T11:03:01;99819.13;;;30.23;9.82
50105;BME280;47690;39.202;-77.198;2022-12-18T11:05:34;99821.94;;;30.22;10.13
50105;BME280;47690;39.202;-77.198;2022-12-18T11:08:21;99829.94;;;30.30;10.04
50105;BME280;47690;39.202;-77.198;2022-12-18T11:11:04;99832.94;;;30.35;9.48
50105;BME280;47690;39.202;-77.198;2022-12-18T11:13:39;99833.09;;;30.34;9.77
50105;BME280;47690;39.202;-77.198;2022-12-18T11:16:19;99831.94;;;30.36;9.62
50105;BME280;47690;39.202;-77.198;2022-12-18T11:18:49;99830.44;;;30.34;9.88
50105;BME280;47690;39.202;-77.198;2022-12-18T11:21:25;99832.09;;;30.26;10.14
50105;BME280;47690;39.202;-77.198;2022-12-18T11:23:58;99845.00;;;30.21;9.79
50105;BME280;47690;39.202;-77.198;2022-12-18T11:26:37;99851.47;;;30.19;9.56
50105;BME280;47690;39.202;-77.198;2022-12-18T11:29:16;99841.34;;;30.22;9.82
50105;BME280;47690;39.202;-77.198;2022-12-18T11:32:58;99846.38;;;30.42;9.49
50105;BME280;47690;39.202;-77.198;2022-12-18T11:35:33;99860.50;;;30.34;9.52
50105;BME280;47690;39.202;-77.198;2022-12-18T11:38:16;99857.97;;;30.24;9.79
50105;BME280;47690;39.202;-77.198;2022-12-18T11:41:47;99870.41;;;30.24;9.56
50105;BME280;47690;39.202;-77.198;2022-12-18T11:44:05;99862.16;;;30.35;9.61
50105;BME280;47690;39.202;-77.198;2022-12-18T11:47:09;99867.00;;;30.40;9.78
50105;BME280;47690;39.202;-77.198;2022-12-18T11:49:49;99872.78;;;30.35;9.63
50105;BME280;47690;39.202;-77.198;2022-12-18T11:52:41;99881.56;;;30.36;9.49
50105;BME280;47690;39.202;-77.198;2022-12-18T11:55:47;99885.75;;;30.47;9.26
50105;BME280;47690;39.202;-77.198;2022-12-18T11:58:43;99886.41;;;30.40;9.41
50105;BME280;47690;39.202;-77.198;2022-12-18T12:01:55;99887.56;;;30.38;9.41
50105;BME280;47690;39.202;-77.198;2022-12-18T12:05:13;99895.38;;;30.48;9.27
50105;BME280;47690;39.202;-77.198;2022-12-18T12:08:37;99897.53;;;30.44;9.12
50105;BME280;47690;39.202;-77.198;2022-12-18T12:14:52;99901.69;;;30.04;9.47
50105;BME280;47690;39.202;-77.198;2022-12-18T12:17:23;99912.00;;;30.07;9.09
50105;BME280;47690;39.202;-77.198;2022-12-18T12:23:45;99915.53;;;30.16;9.11
50105;BME280;47690;39.202;-77.198;2022-12-18T12:36:07;99930.75;;;30.05;9.25
50105;BME280;47690;39.202;-77.198;2022-12-18T12:38:55;99928.41;;;30.02;9.04
50105;BME280;47690;39.202;-77.198;2022-12-18T12:41:37;99926.38;;;29.96;9.20
50105;BME280;47690;39.202;-77.198;2022-12-18T12:44:57;99920.84;;;30.16;8.81
50105;BME280;47690;39.202;-77.198;2022-12-18T12:47:38;99930.06;;;30.03;9.12
50105;BME280;47690;39.202;-77.198;2022-12-18T12:50:20;99934.81;;;29.91;9.00
50105;BME280;47690;39.202;-77.198;2022-12-18T12:53:05;99942.53;;;29.76;9.66
50105;BME280;47690;39.202;-77.198;2022-12-18T12:55:40;99936.25;;;29.77;9.44
50105;BME280;47690;39.202;-77.198;2022-12-18T12:58:34;99941.59;;;29.85;9.06
50105;BME280;47690;39.202;-77.198;2022-12-18T13:07:18;99938.34;;;30.00;9.39
50105;BME280;47690;39.202;-77.198;2022-12-18T13:13:03;99944.81;;;29.97;9.57
50105;BME280;47690;39.202;-77.198;2022-12-18T13:15:46;99949.44;;;29.95;9.48
50105;BME280;47690;39.202;-77.198;2022-12-18T13:18:20;99952.72;;;29.89;9.54
50105;BME280;47690;39.202;-77.198;2022-12-18T13:23:36;99956.53;;;29.87;9.51
50105;BME280;47690;39.202;-77.198;2022-12-18T13:31:09;99956.56;;;29.95;9.69
50105;BME280;47690;39.202;-77.198;2022-12-18T13:33:47;99962.97;;;29.84;9.27
50105;BME280;47690;39.202;-77.198;2022-12-18T13:36:38;99962.88;;;29.94;9.42
50105;BME280;47690;39.202;-77.198;2022-12-18T13:44:40;99970.16;;;29.92;9.26
50105;BME280;47690;39.202;-77.198;2022-12-18T13:47:34;99974.59;;;30.09;9.39
50105;BME280;47690;39.202;-77.198;2022-12-18T13:50:23;99973.34;;;30.22;8.87
50105;BME280;47690;39.202;-77.198;2022-12-18T13:53:04;99984.13;;;30.20;9.13
50105;BME280;47690;39.202;-77.198;2022-12-18T13:55:35;99978.13;;;30.18;8.93
50105;BME280;47690;39.202;-77.198;2022-12-18T13:58:05;99989.91;;;30.16;9.38
50105;BME280;47690;39.202;-77.198;2022-12-18T14:00:41;99987.06;;;30.09;9.16
50105;BME280;47690;39.202;-77.198;2022-12-18T14:03:24;99995.59;;;30.21;9.19
50105;BME280;47690;39.202;-77.198;2022-12-18T14:06:10;99999.56;;;30.25;9.11
50105;BME280;47690;39.202;-77.198;2022-12-18T14:08:47;100012.03;;;30.24;9.22
50105;BME280;47690;39.202;-77.198;2022-12-18T14:11:22;100023.19;;;30.28;9.22
50105;BME280;47690;39.202;-77.198;2022-12-18T14:13:57;100010.56;;;30.30;9.29
50105;BME280;47690;39.202;-77.198;2022-12-18T14:16:32;100017.41;;;30.33;9.21
50105;BME280;47690;39.202;-77.198;2022-12-18T14:19:10;100018.94;;;30.44;9.14
50105;BME280;47690;39.202;-77.198;2022-12-18T14:21:50;100022.50;;;30.61;9.53
50105;BME280;47690;39.202;-77.198;2022-12-18T14:24:29;100026.41;;;30.83;9.13
50105;BME280;47690;39.202;-77.198;2022-12-18T14:27:23;100018.66;;;30.98;9.12
50105;BME280;47690;39.202;-77.198;2022-12-18T14:29:57;100034.06;;;30.51;9.06
50105;BME280;47690;39.202;-77.198;2022-12-18T14:32:29;100035.25;;;30.22;9.45
50105;BME280;47690;39.202;-77.198;2022-12-18T14:35:13;100039.91;;;30.20;9.56
50105;BME280;47690;39.202;-77.198;2022-12-18T14:37:42;100030.75;;;30.15;9.36
50105;BME280;47690;39.202;-77.198;2022-12-18T14:40:13;100038.13;;;30.29;9.20
50105;BME280;47690;39.202;-77.198;2022-12-18T14:42:47;100027.81;;;31.04;8.73
50105;BME280;47690;39.202;-77.198;2022-12-18T14:45:42;100035.69;;;31.30;8.47
50105;BME280;47690;39.202;-77.198;2022-12-18T14:56:36;100052.84;;;31.61;8.90
50105;BME280;47690;39.202;-77.198;2022-12-18T14:59:25;100062.81;;;31.51;8.67
50105;BME280;47690;39.202;-77.198;2022-12-18T15:02:19;100058.69;;;31.65;8.77
50105;BME280;47690;39.202;-77.198;2022-12-18T15:05:29;100064.81;;;31.65;8.67
50105;BME280;47690;39.202;-77.198;2022-12-18T15:08:02;100065.31;;;31.44;8.57
50105;BME280;47690;39.202;-77.198;2022-12-18T15:10:47;100061.09;;;31.25;8.63
50105;BME280;47690;39.202;-77.198;2022-12-18T15:13:27;100077.84;;;31.08;8.77
50105;BME280;47690;39.202;-77.198;2022-12-18T15:16:38;100082.19;;;31.18;8.91
50105;BME280;47690;39.202;-77.198;2022-12-18T15:19:41;100082.03;;;31.19;9.07
50105;BME280;47690;39.202;-77.198;2022-12-18T15:22:30;100084.34;;;31.14;8.79
50105;BME280;47690;39.202;-77.198;2022-12-18T15:29:03;100079.50;;;31.10;8.99